Capt. Reggie Leboeuf — WDC2585 — position and weather

sailwx.info

Track history (hours):
 
Tides and Currents Weather Stations Pressure Air Temp Water Temp Dewpoint Dewpoint Depression Visibility Wind Speed Wind Dir Waves Ship Positions

Capt. Reggie Leboeuf

Owner: Kirby Inland Marine LP, Houston, TX. More information available from US FCC via Universal Licensing System and Coast Guard Vessel Documentation Center.

Last reported at 2018-Feb-21 07:31 UTC. Time now 2018-Feb-21 07:50 UTC.
Position N 29°37' W 095°02'.

Length 116 m; draft 3 m.

Type: . MMSI: 366995280.

Date/timePositionNaut miles runAvg speedWind from/ knotsBaromVisibWave heightAir tempDewpointWater temp
2018-Feb-21 07:31N 29°37' W 095°02'0 0.0
2018-Feb-21 07:00N 29°37' W 095°02'0 0.0
2018-Feb-21 06:30N 29°37' W 095°02'0 0.0
2018-Feb-21 05:59N 29°37' W 095°02'0 0.0
2018-Feb-21 05:30N 29°37' W 095°02'0 0.0
2018-Feb-21 05:00N 29°37' W 095°02'0 0.0
2018-Feb-21 04:30N 29°37' W 095°02'0 0.0
2018-Feb-21 04:01N 29°37' W 095°02'0 0.0
2018-Feb-21 03:30N 29°37' W 095°02'0 0.0
2018-Feb-21 03:00N 29°37' W 095°02'0 0.0
2018-Feb-21 02:31N 29°37' W 095°02'0 0.0
2018-Feb-21 02:00N 29°37' W 095°02'0 0.0
2018-Feb-21 01:30N 29°37' W 095°02'0 0.0
2018-Feb-21 01:00N 29°37' W 095°02'0 0.0
2018-Feb-21 00:31N 29°37' W 095°02'0 0.0
2018-Feb-21 00:00N 29°37' W 095°02'0 0.0
2018-Feb-20 23:30N 29°37' W 095°02'0 0.0
2018-Feb-20 23:00N 29°37' W 095°02'0 0.0
2018-Feb-20 22:31N 29°37' W 095°02'0 0.0
2018-Feb-20 22:01N 29°37' W 095°02'0 0.0
2018-Feb-20 21:30N 29°37' W 095°02'0 0.0
2018-Feb-20 21:01N 29°37' W 095°02'0 0.0
2018-Feb-20 20:30N 29°37' W 095°02'0 0.0
2018-Feb-20 20:00N 29°37' W 095°02'0 0.0
2018-Feb-20 19:30N 29°37' W 095°02'0 0.0
2018-Feb-20 19:00N 29°37' W 095°02'0 0.3
2018-Feb-20 18:30N 29°37' W 095°01'0 0.3
2018-Feb-20 18:00N 29°37' W 095°01'0 0.1
2018-Feb-20 17:30N 29°37' W 095°01'0 0.1
2018-Feb-20 17:01N 29°37' W 095°01'0 0.0
2018-Feb-20 16:31N 29°37' W 095°01'0 0.0
2018-Feb-20 16:00N 29°37' W 095°01'0 0.0
2018-Feb-20 15:30N 29°37' W 095°01'0 0.0
2018-Feb-20 15:00N 29°37' W 095°01'0 0.0
2018-Feb-20 14:30N 29°37' W 095°01'0 0.0
2018-Feb-20 14:01N 29°37' W 095°01'0 0.0
2018-Feb-20 13:30N 29°37' W 095°01'0 0.0
2018-Feb-20 13:00N 29°37' W 095°01'0 0.0
2018-Feb-20 11:41N 29°37' W 095°01'0 0.0
2018-Feb-20 11:16N 29°37' W 095°01'0 0.0
2018-Feb-20 11:00N 29°37' W 095°01'0 0.1
2018-Feb-20 08:43N 29°37' W 095°02'0 0.0
2018-Feb-20 08:21N 29°37' W 095°02'0 0.0
2018-Feb-20 08:00N 29°37' W 095°02'0 0.0
2018-Feb-20 07:30N 29°37' W 095°02'0 0.0
2018-Feb-20 07:00N 29°37' W 095°02'0 0.0
2018-Feb-20 06:29N 29°37' W 095°02'0 0.0
2018-Feb-20 06:01N 29°37' W 095°02'0 0.2
2018-Feb-20 05:30N 29°37' W 095°02'0 0.1
2018-Feb-20 05:00N 29°37' W 095°02'0 0.9
2018-Feb-20 04:30N 29°37' W 095°01'3 6.1
2018-Feb-20 04:00N 29°37' W 094°58'3 6.8
2018-Feb-20 03:30N 29°41' W 094°59'3 6.0
2018-Feb-20 03:00N 29°43' W 095°01'4 5.8
2018-Feb-20 02:14N 29°46' W 095°05'0 1.1
2018-Feb-20 01:58N 29°46' W 095°06'0 0.1
2018-Feb-20 01:29N 29°45' W 095°06'0 0.1
2018-Feb-20 00:59N 29°46' W 095°06'0 0.0
2018-Feb-19 22:23N 29°46' W 095°06'2 0.7
2018-Feb-19 20:02N 29°47' W 095°05'1 5.6
2018-Feb-19 19:47N 29°46' W 095°06'0 0.1
2018-Feb-19 17:23N 29°46' W 095°05'3 1.3
2018-Feb-19 15:21N 29°44' W 095°03'0 0.6
2018-Feb-19 14:56N 29°44' W 095°03'0 0.3
2018-Feb-19 14:27N 29°44' W 095°03'2 3.5
2018-Feb-19 13:59N 29°45' W 095°04'1 0.2
2018-Feb-19 09:09N 29°46' W 095°06'0 0.0
2018-Feb-19 08:57N 29°46' W 095°06'1 1.3
2018-Feb-19 08:29N 29°45' W 095°06'0 0.7
2018-Feb-19 08:00N 29°45' W 095°06'1 1.7
2018-Feb-19 07:28N 29°46' W 095°06'0 0.0
2018-Feb-19 07:00N 29°46' W 095°06'0 0.0
2018-Feb-19 06:29N 29°46' W 095°06'0 0.0
2018-Feb-19 06:00N 29°46' W 095°06'0 0.0
2018-Feb-19 05:30N 29°46' W 095°06'0 0.0
2018-Feb-19 05:00N 29°46' W 095°06'0 0.0
2018-Feb-19 04:23N 29°46' W 095°06'0 0.0
2018-Feb-19 01:41N 29°46' W 095°06'0 0.1
2018-Feb-18 22:44N 29°45' W 095°06'0 0.1
2018-Feb-18 22:25N 29°45' W 095°06'0 0.1
2018-Feb-18 19:07N 29°46' W 095°05'0 0.2
2018-Feb-18 17:45N 29°46' W 095°06'0 0.0
2018-Feb-18 17:25N 29°46' W 095°06'0 0.0
2018-Feb-18 16:29N 29°46' W 095°06'0 0.0
2018-Feb-18 16:00N 29°46' W 095°06'0 0.0
2018-Feb-18 14:43N 29°46' W 095°06'0 0.0
2018-Feb-18 11:40N 29°46' W 095°06'0 0.9
2018-Feb-18 11:19N 29°46' W 095°06'0 0.0
2018-Feb-18 02:41N 29°45' W 095°06'0 0.0
2018-Feb-18 00:44N 29°45' W 095°06'0 0.3
2018-Feb-18 00:29N 29°45' W 095°06'0 0.5
2018-Feb-18 00:00N 29°46' W 095°05'0 0.0
2018-Feb-17 07:10N 29°45' W 095°06'0 0.0
2018-Feb-17 06:43N 29°45' W 095°06'0 0.0
2018-Feb-16 11:26N 29°46' W 095°06'0 0.0
2018-Feb-16 10:56N 29°46' W 095°06'0 0.0
2018-Feb-16 10:28N 29°46' W 095°06'0 0.0
2018-Feb-16 09:56N 29°46' W 095°06'0 0.0
2018-Feb-16 09:24N 29°46' W 095°06'0 0.0
2018-Feb-16 08:52N 29°46' W 095°06'0 0.0
2018-Feb-16 08:21N 29°46' W 095°06'0 0.0
2018-Feb-16 07:54N 29°46' W 095°06'0 0.0
2018-Feb-16 07:27N 29°46' W 095°06'0 0.0
2018-Feb-16 07:00N 29°46' W 095°06'0 0.0
2018-Feb-16 06:27N 29°46' W 095°06'0 0.0
2018-Feb-16 05:57N 29°46' W 095°06'0 0.0
2018-Feb-16 05:20N 29°46' W 095°06'0 0.0
2018-Feb-16 04:51N 29°46' W 095°06'0 0.0
2018-Feb-16 04:30N 29°46' W 095°06'0 0.0
2018-Feb-16 03:59N 29°46' W 095°06'0 0.0
2018-Feb-16 03:30N 29°46' W 095°06'0 0.0
2018-Feb-16 02:57N 29°46' W 095°06'0 0.0
2018-Feb-16 02:30N 29°46' W 095°06'0 0.0
2018-Feb-16 01:58N 29°46' W 095°06'0 0.0
2018-Feb-16 01:30N 29°46' W 095°06'0 0.0
2018-Feb-16 00:59N 29°46' W 095°06'0 0.0
2018-Feb-15 18:04N 29°46' W 095°06'1 0.7
2018-Feb-15 17:10N 29°45' W 095°06'0 0.0
2018-Feb-15 16:39N 29°45' W 095°06'0 0.0
2018-Feb-15 09:01N 29°45' W 095°06'0 0.3
2018-Feb-15 08:59N 29°45' W 095°06'0 0.0
2018-Feb-15 08:30N 29°45' W 095°06'0 0.0
2018-Feb-15 08:00N 29°45' W 095°06'0 0.0
2018-Feb-15 07:30N 29°45' W 095°06'0 0.0
2018-Feb-15 06:57N 29°45' W 095°06'0 0.0
2018-Feb-15 06:25N 29°45' W 095°06'0 0.0
2018-Feb-15 05:56N 29°45' W 095°06'0 0.0
2018-Feb-15 05:30N 29°45' W 095°06'0 0.0
2018-Feb-15 05:00N 29°45' W 095°06'0 0.0
2018-Feb-15 04:26N 29°45' W 095°06'0 0.0
2018-Feb-15 03:59N 29°45' W 095°06'0 0.0
2018-Feb-15 03:30N 29°45' W 095°06'1 0.1
2018-Feb-14 21:27N 29°46' W 095°06'0 0.0
2018-Feb-14 20:53N 29°46' W 095°06'0 0.0
2018-Feb-14 20:25N 29°46' W 095°06'0 0.1
2018-Feb-14 19:59N 29°46' W 095°06'0 0.0
2018-Feb-12 21:14N 29°46' W 095°06'0 0.6
2018-Feb-12 20:44N 29°46' W 095°05'3 2.2
2018-Feb-12 19:27N 29°44' W 095°03'2 4.1
2018-Feb-12 18:58N 29°43' W 095°01'2 5.2
2018-Feb-12 18:30N 29°41' W 094°59'3 6.5
2018-Feb-12 18:00N 29°38' W 094°58'3 7.1
2018-Feb-12 17:30N 29°35' W 094°56'4 7.2
2018-Feb-12 16:59N 29°32' W 094°54'26 2.8
2018-Feb-12 07:31N 29°36' W 094°24'1 5.2
2018-Feb-12 07:25N 29°36' W 094°23'9 4.5
2018-Feb-12 05:23N 29°40' W 094°14'2 5.6
2018-Feb-12 05:00N 29°41' W 094°12'2 5.0
2018-Feb-12 04:30N 29°42' W 094°09'3 5.1
2018-Feb-12 04:00N 29°43' W 094°07'3 5.0
2018-Feb-12 03:30N 29°45' W 094°05'3 5.2
2018-Feb-12 03:00N 29°46' W 094°02'3 5.2
2018-Feb-12 02:30N 29°48' W 094°00'2 4.8
2018-Feb-12 02:00N 29°49' W 093°58'3 5.5
2018-Feb-12 01:30N 29°52' W 093°56'3 6.1
2018-Feb-12 01:00N 29°54' W 093°54'3 5.8
2018-Feb-12 00:30N 29°57' W 093°52'2 4.8
2018-Feb-12 00:00N 29°58' W 093°50'3 6.3
2018-Feb-11 23:30N 29°60' W 093°47'3 6.5
2018-Feb-11 23:00N 30°02' W 093°44'3 5.8
2018-Feb-11 22:30N 30°03' W 093°42'4 6.1
2018-Feb-11 21:54N 30°04' W 093°37'4 5.3
2018-Feb-11 21:06N 30°04' W 093°32'1 5.1
2018-Feb-11 20:55N 30°04' W 093°31'2 5.2
2018-Feb-11 20:30N 30°04' W 093°29'2 4.9
2018-Feb-11 20:00N 30°04' W 093°26'3 4.9
2018-Feb-11 19:27N 30°04' W 093°23'2 3.6
2018-Feb-11 19:00N 30°04' W 093°21'2 3.8
2018-Feb-11 18:30N 30°05' W 093°20'3 5.2
2018-Feb-11 17:59N 30°08' W 093°20'2 4.6
2018-Feb-11 17:30N 30°10' W 093°19'2 5.0
2018-Feb-11 17:00N 30°12' W 093°17'1 2.8
2018-Feb-11 16:30N 30°13' W 093°16'1 1.3
2018-Feb-11 16:00N 30°14' W 093°16'0 0.5
2018-Feb-11 15:30N 30°14' W 093°16'0 0.5
2018-Feb-11 15:00N 30°14' W 093°15'0 0.1
2018-Feb-11 14:28N 30°14' W 093°15'0 0.0
2018-Feb-11 13:55N 30°14' W 093°15'0 0.0
2018-Feb-11 13:28N 30°14' W 093°15'0 0.0
2018-Feb-11 12:58N 30°14' W 093°15'0 0.0
2018-Feb-11 12:28N 30°14' W 093°15'0 0.0
2018-Feb-11 11:58N 30°14' W 093°15'0 0.0
2018-Feb-11 11:28N 30°14' W 093°15'0 0.0
2018-Feb-11 10:58N 30°14' W 093°15'0 0.0
2018-Feb-11 10:28N 30°14' W 093°15'0 0.0
2018-Feb-11 09:58N 30°14' W 093°15'0 0.0
2018-Feb-11 09:28N 30°14' W 093°15'0 0.0
2018-Feb-11 08:58N 30°14' W 093°15'0 0.0
2018-Feb-11 08:31N 30°14' W 093°15'0 0.0
2018-Feb-11 08:01N 30°14' W 093°15'  
Track history (hours):
 
Tides and Currents Weather Stations Pressure Air Temp Water Temp Dewpoint Dewpoint Depression Visibility Wind Speed Wind Dir Waves Ship Positions

Capt. Reggie Leboeuf

Owner: Kirby Inland Marine LP, Houston, TX. More information available from US FCC via Universal Licensing System and Coast Guard Vessel Documentation Center.

Last reported at 2018-Feb-21 07:31 UTC. Time now 2018-Feb-21 07:50 UTC.
Position N 29°37' W 095°02'.

Length 116 m; draft 3 m.

Type: . MMSI: 366995280.

Date/timePositionNaut miles runAvg speedWind from/ knotsBaromVisibWave heightAir tempDewpointWater temp
2018-Feb-21 07:31N 29°37' W 095°02'0 0.0
2018-Feb-21 07:00N 29°37' W 095°02'0 0.0
2018-Feb-21 06:30N 29°37' W 095°02'0 0.0
2018-Feb-21 05:59N 29°37' W 095°02'0 0.0
2018-Feb-21 05:30N 29°37' W 095°02'0 0.0
2018-Feb-21 05:00N 29°37' W 095°02'0 0.0
2018-Feb-21 04:30N 29°37' W 095°02'0 0.0
2018-Feb-21 04:01N 29°37' W 095°02'0 0.0
2018-Feb-21 03:30N 29°37' W 095°02'0 0.0
2018-Feb-21 03:00N 29°37' W 095°02'0 0.0
2018-Feb-21 02:31N 29°37' W 095°02'0 0.0
2018-Feb-21 02:00N 29°37' W 095°02'0 0.0
2018-Feb-21 01:30N 29°37' W 095°02'0 0.0
2018-Feb-21 01:00N 29°37' W 095°02'0 0.0
2018-Feb-21 00:31N 29°37' W 095°02'0 0.0
2018-Feb-21 00:00N 29°37' W 095°02'0 0.0
2018-Feb-20 23:30N 29°37' W 095°02'0 0.0
2018-Feb-20 23:00N 29°37' W 095°02'0 0.0
2018-Feb-20 22:31N 29°37' W 095°02'0 0.0
2018-Feb-20 22:01N 29°37' W 095°02'0 0.0
2018-Feb-20 21:30N 29°37' W 095°02'0 0.0
2018-Feb-20 21:01N 29°37' W 095°02'0 0.0
2018-Feb-20 20:30N 29°37' W 095°02'0 0.0
2018-Feb-20 20:00N 29°37' W 095°02'0 0.0
2018-Feb-20 19:30N 29°37' W 095°02'0 0.0
2018-Feb-20 19:00N 29°37' W 095°02'0 0.3
2018-Feb-20 18:30N 29°37' W 095°01'0 0.3
2018-Feb-20 18:00N 29°37' W 095°01'0 0.1
2018-Feb-20 17:30N 29°37' W 095°01'0 0.1
2018-Feb-20 17:01N 29°37' W 095°01'0 0.0
2018-Feb-20 16:31N 29°37' W 095°01'0 0.0
2018-Feb-20 16:00N 29°37' W 095°01'0 0.0
2018-Feb-20 15:30N 29°37' W 095°01'0 0.0
2018-Feb-20 15:00N 29°37' W 095°01'0 0.0
2018-Feb-20 14:30N 29°37' W 095°01'0 0.0
2018-Feb-20 14:01N 29°37' W 095°01'0 0.0
2018-Feb-20 13:30N 29°37' W 095°01'0 0.0
2018-Feb-20 13:00N 29°37' W 095°01'0 0.0
2018-Feb-20 11:41N 29°37' W 095°01'0 0.0
2018-Feb-20 11:16N 29°37' W 095°01'0 0.0
2018-Feb-20 11:00N 29°37' W 095°01'0 0.1
2018-Feb-20 08:43N 29°37' W 095°02'0 0.0
2018-Feb-20 08:21N 29°37' W 095°02'0 0.0
2018-Feb-20 08:00N 29°37' W 095°02'0 0.0
2018-Feb-20 07:30N 29°37' W 095°02'0 0.0
2018-Feb-20 07:00N 29°37' W 095°02'0 0.0
2018-Feb-20 06:29N 29°37' W 095°02'0 0.0
2018-Feb-20 06:01N 29°37' W 095°02'0 0.2
2018-Feb-20 05:30N 29°37' W 095°02'0 0.1
2018-Feb-20 05:00N 29°37' W 095°02'0 0.9
2018-Feb-20 04:30N 29°37' W 095°01'3 6.1
2018-Feb-20 04:00N 29°37' W 094°58'3 6.8
2018-Feb-20 03:30N 29°41' W 094°59'3 6.0
2018-Feb-20 03:00N 29°43' W 095°01'4 5.8
2018-Feb-20 02:14N 29°46' W 095°05'0 1.1
2018-Feb-20 01:58N 29°46' W 095°06'0 0.1
2018-Feb-20 01:29N 29°45' W 095°06'0 0.1
2018-Feb-20 00:59N 29°46' W 095°06'0 0.0
2018-Feb-19 22:23N 29°46' W 095°06'2 0.7
2018-Feb-19 20:02N 29°47' W 095°05'1 5.6
2018-Feb-19 19:47N 29°46' W 095°06'0 0.1
2018-Feb-19 17:23N 29°46' W 095°05'3 1.3
2018-Feb-19 15:21N 29°44' W 095°03'0 0.6
2018-Feb-19 14:56N 29°44' W 095°03'0 0.3
2018-Feb-19 14:27N 29°44' W 095°03'2 3.5
2018-Feb-19 13:59N 29°45' W 095°04'1 0.2
2018-Feb-19 09:09N 29°46' W 095°06'0 0.0
2018-Feb-19 08:57N 29°46' W 095°06'1 1.3
2018-Feb-19 08:29N 29°45' W 095°06'0 0.7
2018-Feb-19 08:00N 29°45' W 095°06'1 1.7
2018-Feb-19 07:28N 29°46' W 095°06'0 0.0
2018-Feb-19 07:00N 29°46' W 095°06'0 0.0
2018-Feb-19 06:29N 29°46' W 095°06'0 0.0
2018-Feb-19 06:00N 29°46' W 095°06'0 0.0
2018-Feb-19 05:30N 29°46' W 095°06'0 0.0
2018-Feb-19 05:00N 29°46' W 095°06'0 0.0
2018-Feb-19 04:23N 29°46' W 095°06'0 0.0
2018-Feb-19 01:41N 29°46' W 095°06'0 0.1
2018-Feb-18 22:44N 29°45' W 095°06'0 0.1
2018-Feb-18 22:25N 29°45' W 095°06'0 0.1
2018-Feb-18 19:07N 29°46' W 095°05'0 0.2
2018-Feb-18 17:45N 29°46' W 095°06'0 0.0
2018-Feb-18 17:25N 29°46' W 095°06'0 0.0
2018-Feb-18 16:29N 29°46' W 095°06'0 0.0
2018-Feb-18 16:00N 29°46' W 095°06'0 0.0
2018-Feb-18 14:43N 29°46' W 095°06'0 0.0
2018-Feb-18 11:40N 29°46' W 095°06'0 0.9
2018-Feb-18 11:19N 29°46' W 095°06'0 0.0
2018-Feb-18 02:41N 29°45' W 095°06'0 0.0
2018-Feb-18 00:44N 29°45' W 095°06'0 0.3
2018-Feb-18 00:29N 29°45' W 095°06'0 0.5
2018-Feb-18 00:00N 29°46' W 095°05'0 0.0
2018-Feb-17 07:10N 29°45' W 095°06'0 0.0
2018-Feb-17 06:43N 29°45' W 095°06'0 0.0
2018-Feb-16 11:26N 29°46' W 095°06'0 0.0
2018-Feb-16 10:56N 29°46' W 095°06'0 0.0
2018-Feb-16 10:28N 29°46' W 095°06'0 0.0
2018-Feb-16 09:56N 29°46' W 095°06'0 0.0
2018-Feb-16 09:24N 29°46' W 095°06'0 0.0
2018-Feb-16 08:52N 29°46' W 095°06'0 0.0
2018-Feb-16 08:21N 29°46' W 095°06'0 0.0
2018-Feb-16 07:54N 29°46' W 095°06'0 0.0
2018-Feb-16 07:27N 29°46' W 095°06'0 0.0
2018-Feb-16 07:00N 29°46' W 095°06'0 0.0
2018-Feb-16 06:27N 29°46' W 095°06'0 0.0
2018-Feb-16 05:57N 29°46' W 095°06'0 0.0
2018-Feb-16 05:20N 29°46' W 095°06'0 0.0
2018-Feb-16 04:51N 29°46' W 095°06'0 0.0
2018-Feb-16 04:30N 29°46' W 095°06'0 0.0
2018-Feb-16 03:59N 29°46' W 095°06'0 0.0
2018-Feb-16 03:30N 29°46' W 095°06'0 0.0
2018-Feb-16 02:57N 29°46' W 095°06'0 0.0
2018-Feb-16 02:30N 29°46' W 095°06'0 0.0
2018-Feb-16 01:58N 29°46' W 095°06'0 0.0
2018-Feb-16 01:30N 29°46' W 095°06'0 0.0
2018-Feb-16 00:59N 29°46' W 095°06'0 0.0
2018-Feb-15 18:04N 29°46' W 095°06'1 0.7
2018-Feb-15 17:10N 29°45' W 095°06'0 0.0
2018-Feb-15 16:39N 29°45' W 095°06'0 0.0
2018-Feb-15 09:01N 29°45' W 095°06'0 0.3
2018-Feb-15 08:59N 29°45' W 095°06'0 0.0
2018-Feb-15 08:30N 29°45' W 095°06'0 0.0
2018-Feb-15 08:00N 29°45' W 095°06'0 0.0
2018-Feb-15 07:30N 29°45' W 095°06'0 0.0
2018-Feb-15 06:57N 29°45' W 095°06'0 0.0
2018-Feb-15 06:25N 29°45' W 095°06'0 0.0
2018-Feb-15 05:56N 29°45' W 095°06'0 0.0
2018-Feb-15 05:30N 29°45' W 095°06'0 0.0
2018-Feb-15 05:00N 29°45' W 095°06'0 0.0
2018-Feb-15 04:26N 29°45' W 095°06'0 0.0
2018-Feb-15 03:59N 29°45' W 095°06'0 0.0
2018-Feb-15 03:30N 29°45' W 095°06'1 0.1
2018-Feb-14 21:27N 29°46' W 095°06'0 0.0
2018-Feb-14 20:53N 29°46' W 095°06'0 0.0
2018-Feb-14 20:25N 29°46' W 095°06'0 0.1
2018-Feb-14 19:59N 29°46' W 095°06'0 0.0
2018-Feb-12 21:14N 29°46' W 095°06'0 0.6
2018-Feb-12 20:44N 29°46' W 095°05'3 2.2
2018-Feb-12 19:27N 29°44' W 095°03'2 4.1
2018-Feb-12 18:58N 29°43' W 095°01'2 5.2
2018-Feb-12 18:30N 29°41' W 094°59'3 6.5
2018-Feb-12 18:00N 29°38' W 094°58'3 7.1
2018-Feb-12 17:30N 29°35' W 094°56'4 7.2
2018-Feb-12 16:59N 29°32' W 094°54'26 2.8
2018-Feb-12 07:31N 29°36' W 094°24'1 5.2
2018-Feb-12 07:25N 29°36' W 094°23'9 4.5
2018-Feb-12 05:23N 29°40' W 094°14'2 5.6
2018-Feb-12 05:00N 29°41' W 094°12'2 5.0
2018-Feb-12 04:30N 29°42' W 094°09'3 5.1
2018-Feb-12 04:00N 29°43' W 094°07'3 5.0
2018-Feb-12 03:30N 29°45' W 094°05'3 5.2
2018-Feb-12 03:00N 29°46' W 094°02'3 5.2
2018-Feb-12 02:30N 29°48' W 094°00'2 4.8
2018-Feb-12 02:00N 29°49' W 093°58'3 5.5
2018-Feb-12 01:30N 29°52' W 093°56'3 6.1
2018-Feb-12 01:00N 29°54' W 093°54'3 5.8
2018-Feb-12 00:30N 29°57' W 093°52'2 4.8
2018-Feb-12 00:00N 29°58' W 093°50'3 6.3
2018-Feb-11 23:30N 29°60' W 093°47'3 6.5
2018-Feb-11 23:00N 30°02' W 093°44'3 5.8
2018-Feb-11 22:30N 30°03' W 093°42'4 6.1
2018-Feb-11 21:54N 30°04' W 093°37'4 5.3
2018-Feb-11 21:06N 30°04' W 093°32'1 5.1
2018-Feb-11 20:55N 30°04' W 093°31'2 5.2
2018-Feb-11 20:30N 30°04' W 093°29'2 4.9
2018-Feb-11 20:00N 30°04' W 093°26'3 4.9
2018-Feb-11 19:27N 30°04' W 093°23'2 3.6
2018-Feb-11 19:00N 30°04' W 093°21'2 3.8
2018-Feb-11 18:30N 30°05' W 093°20'3 5.2
2018-Feb-11 17:59N 30°08' W 093°20'2 4.6
2018-Feb-11 17:30N 30°10' W 093°19'2 5.0
2018-Feb-11 17:00N 30°12' W 093°17'1 2.8
2018-Feb-11 16:30N 30°13' W 093°16'1 1.3
2018-Feb-11 16:00N 30°14' W 093°16'0 0.5
2018-Feb-11 15:30N 30°14' W 093°16'0 0.5
2018-Feb-11 15:00N 30°14' W 093°15'0 0.1
2018-Feb-11 14:28N 30°14' W 093°15'0 0.0
2018-Feb-11 13:55N 30°14' W 093°15'0 0.0
2018-Feb-11 13:28N 30°14' W 093°15'0 0.0
2018-Feb-11 12:58N 30°14' W 093°15'0 0.0
2018-Feb-11 12:28N 30°14' W 093°15'0 0.0
2018-Feb-11 11:58N 30°14' W 093°15'0 0.0
2018-Feb-11 11:28N 30°14' W 093°15'0 0.0
2018-Feb-11 10:58N 30°14' W 093°15'0 0.0
2018-Feb-11 10:28N 30°14' W 093°15'0 0.0
2018-Feb-11 09:58N 30°14' W 093°15'0 0.0
2018-Feb-11 09:28N 30°14' W 093°15'0 0.0
2018-Feb-11 08:58N 30°14' W 093°15'0 0.0
2018-Feb-11 08:31N 30°14' W 093°15'0 0.0
2018-Feb-11 08:01N 30°14' W 093°15'  

Dump ship's entire track history